Atwood, CA

11:17 PM PDT on May 06, 2015 (GMT -0700)
SW Yorba Linda/NW Anaheim Hills | | Change Station
CLOSE
Current Station
Personal Weather Station
Location: Yorba Linda, CA
Elevation: 278 ft
Nearby Weather Stations

Elev 278 ft 33.87 °N, 117.80 °W | Updated 3 seconds ago

Mostly Cloudy
Mostly Cloudy
61.5 °F
Feels Like 61.5 °F
N
0.0
Wind Variable Wind from WSW
Gusts 3.1 mph

Today
High -- | Low -- °F
--% Chance of Precip.
Yesterday
High -- | Low -- °F
Precip. -- in
5:57 AM 7:38 PM
Waning Gibbous, 90% visible
Pressure 29.88 in
Visibility 10.0 miles
Clouds Few 2800 ft
Scattered Clouds 3600 ft
Overcast 5500 ft
Dew Point 52 °F
Humidity 71%
Rainfall 0.00 in
Snow Depth Not available.
UV 0 out of 12
Pollen 5.60 out of 12
Air Quality Not available.
Flu Activity Sporadic
METAR KFUL 070553Z VRB03KT 10SM FEW028 SCT036 OVC055 16/09 A2988 RMK AO2 SLP116 T01560089 10200 20156 51013

More Conditions Fewer Conditions

Pressure 29.88 in
Visibility 10.0 miles
Clouds Few 2800 ft
Scattered Clouds 3600 ft
Overcast 5500 ft
Dew Point 52 °F
Humidity 71%
Rainfall 0.00 in
Snow Depth Not available.
UV 0 out of 12
Pollen 5.60 out of 12
Air Quality Not available.
Flu Activity Sporadic
METAR KFUL 070553Z VRB03KT 10SM FEW028 SCT036 OVC055 16/09 A2988 RMK AO2 SLP116 T01560089 10200 20156 51013

More Conditions Fewer Conditions

10-Day Weather Forecast

Almanac

Astronomy

May. 06, 2015 Rise Set
Actual Time
Civil Twilight
Nautical Twilight
Astronomical Twilight
Moon
Length of Visible Light
Length of Day
Tomorrow will be .
, % of the Moon is Illuminated

Today's Extremes

State Highs State Lows

Community

WunderPhotos

Upload Photos

1,819,126 photos uploaded!

WunderBlogs® & News

Nearby

Air Quality

  Air Quality AQ Index Pollutant
Not available.

Snow Depth

Station Depth Elevation

Earthquake Activity

City Distance Mag. Time & Date
Minimum magnitude displayed is 2.5.

Coastal Water Temperatures

Place Temperature

Stations

Nearby Weather Stations

Station Location Temp. Windchill Dew Point Humidity Wind Precip. Elev Updated Type